createdAt,value
2024-04-09T00:01:21.865Z,100275.16
2024-04-09T00:03:48.845Z,100279.03
2024-04-09T00:06:16.318Z,100268.91
2024-04-09T00:08:45.991Z,100289.66
2024-04-09T00:11:23.114Z,100283.13
2024-04-09T00:13:52.420Z,100281.94
2024-04-09T00:16:29.741Z,100284.34
2024-04-09T00:18:59.140Z,100270.91
2024-04-09T00:21:27.378Z,100251.94
2024-04-09T00:23:58.144Z,100238.25
2024-04-09T00:26:25.322Z,100271.59
2024-04-09T00:28:52.671Z,100290.22
2024-04-09T00:31:19.314Z,100296.31
2024-04-09T00:33:47.300Z,100285.78
2024-04-09T00:36:14.340Z,100288.31
2024-04-09T00:38:42.082Z,100291.03
2024-04-09T00:41:11.540Z,100301.94
2024-04-09T00:43:38.571Z,100309.59
2024-04-09T00:46:08.937Z,100323.66
2024-04-09T00:48:35.810Z,100325.47
2024-04-09T00:51:05.653Z,100346.69
2024-04-09T00:53:33.940Z,100344.16
2024-04-09T00:56:02.388Z,100337.69
2024-04-09T00:58:29.896Z,100329.09
2024-04-09T01:00:58.164Z,100337.25
2024-04-09T01:03:26.223Z,100335.84
2024-04-09T01:05:53.904Z,100326.81
2024-04-09T01:08:20.570Z,100322.91
2024-04-09T01:10:47.312Z,100322.06
2024-04-09T01:13:13.944Z,100334.38
2024-04-09T01:15:40.726Z,100332.00
2024-04-09T01:18:08.001Z,100335.56
2024-04-09T01:20:34.680Z,100338.31
2024-04-09T01:23:01.994Z,100333.06
2024-04-09T01:25:28.679Z,100324.25
2024-04-09T01:27:55.628Z,100323.41
2024-04-09T01:30:22.932Z,100321.63
2024-04-09T01:32:50.502Z,100321.63
2024-04-09T01:35:17.883Z,100315.97
2024-04-09T01:37:44.511Z,100309.50
2024-04-09T01:40:12.051Z,100299.41
2024-04-09T01:42:38.871Z,100304.78
2024-04-09T01:45:06.259Z,100313.75
2024-04-09T01:47:33.931Z,100320.91
2024-04-09T01:50:00.878Z,100332.94
2024-04-09T01:52:27.547Z,100361.50
2024-04-09T01:54:54.463Z,100363.53
2024-04-09T01:57:21.242Z,100354.47
2024-04-09T01:59:48.321Z,100349.84
2024-04-09T02:02:17.643Z,100351.63
2024-04-09T02:04:45.449Z,100362.50
2024-04-09T02:07:12.841Z,100346.19
2024-04-09T02:09:39.487Z,100349.78
2024-04-09T02:12:06.971Z,100343.09
2024-04-09T02:14:33.610Z,100345.72
2024-04-09T02:17:00.214Z,100333.44
2024-04-09T02:19:26.975Z,100315.56
2024-04-09T02:21:53.575Z,100285.03
2024-04-09T02:24:20.258Z,100267.09
2024-04-09T02:26:48.338Z,100277.59
2024-04-09T02:29:16.154Z,100293.50
2024-04-09T02:31:44.973Z,100349.00
2024-04-09T02:34:11.626Z,100371.19
2024-04-09T02:36:38.327Z,100384.66
2024-04-09T02:39:07.102Z,100393.06
2024-04-09T02:41:33.783Z,100401.97
2024-04-09T02:44:00.383Z,100406.75
2024-04-09T02:46:27.011Z,100414.38
2024-04-09T02:48:53.730Z,100409.75
2024-04-09T02:51:22.756Z,100415.09
2024-04-09T02:53:49.416Z,100424.41
2024-04-09T02:56:16.013Z,100421.06
2024-04-09T02:58:42.765Z,100435.97
2024-04-09T03:01:11.230Z,100438.50
2024-04-09T03:03:39.357Z,100434.31
2024-04-09T03:06:13.031Z,100432.75
2024-04-09T03:08:44.029Z,100431.09
2024-04-09T03:11:19.071Z,100437.66
2024-04-09T03:13:47.319Z,100436.22
2024-04-09T03:16:21.838Z,100436.81
2024-04-09T03:18:51.713Z,100434.66
2024-04-09T03:21:18.651Z,100419.41
2024-04-09T03:23:45.494Z,100429.41
2024-04-09T03:26:13.465Z,100431.66
2024-04-09T03:28:40.473Z,100427.25
2024-04-09T03:31:07.569Z,100429.75
2024-04-09T03:33:35.090Z,100430.72
2024-04-09T03:36:05.161Z,100417.84
2024-04-09T03:38:31.931Z,100430.22
2024-04-09T03:41:03.615Z,100435.25
2024-04-09T03:43:30.669Z,100419.38
2024-04-09T03:46:07.702Z,100411.53
2024-04-09T03:48:39.436Z,100413.56
2024-04-09T03:51:07.184Z,100424.63
2024-04-09T03:53:34.289Z,100426.06
2024-04-09T03:56:03.275Z,100421.28
2024-04-09T03:58:38.207Z,100428.69
2024-04-09T04:01:08.545Z,100416.03
2024-04-09T04:03:37.829Z,100401.38
2024-04-09T04:06:04.752Z,100401.75
2024-04-09T04:08:33.891Z,100424.38
2024-04-09T04:11:05.880Z,100430.34
2024-04-09T04:13:34.006Z,100448.78
2024-04-09T04:16:07.139Z,100455.81
2024-04-09T04:18:38.421Z,100464.75
2024-04-09T04:21:09.962Z,100465.59
2024-04-09T04:23:38.590Z,100467.13
2024-04-09T04:26:08.027Z,100481.81
2024-04-09T04:28:36.509Z,100489.06
2024-04-09T04:31:10.257Z,100496.69
2024-04-09T04:33:38.264Z,100504.19
2024-04-09T04:36:10.343Z,100507.75
2024-04-09T04:38:38.334Z,100514.56
2024-04-09T04:41:06.790Z,100525.25
2024-04-09T04:43:34.493Z,100531.34
2024-04-09T04:46:01.912Z,100535.88
2024-04-09T04:48:29.074Z,100544.66
2024-04-09T04:50:55.870Z,100548.34
2024-04-09T04:53:22.761Z,100555.38
2024-04-09T04:55:52.705Z,100555.00
2024-04-09T04:58:22.764Z,100548.19
2024-04-09T05:00:50.527Z,100551.13
2024-04-09T05:03:17.535Z,100561.84
2024-04-09T05:05:44.281Z,100567.44
2024-04-09T05:08:10.887Z,100570.34
2024-04-09T05:10:40.658Z,100578.75
2024-04-09T05:13:08.081Z,100582.53
2024-04-09T05:15:34.911Z,100571.31
2024-04-09T05:18:03.014Z,100577.63
2024-04-09T05:20:30.808Z,100573.75
2024-04-09T05:22:58.612Z,100583.72
2024-04-09T05:25:28.914Z,100584.22
2024-04-09T05:27:58.347Z,100586.69
2024-04-09T05:30:25.077Z,100603.56
2024-04-09T05:32:51.940Z,100600.31
2024-04-09T05:35:20.848Z,100600.19
2024-04-09T05:37:47.597Z,100607.97
2024-04-09T05:40:14.292Z,100615.19
2024-04-09T05:42:47.257Z,100608.81
2024-04-09T05:45:17.344Z,100611.84
2024-04-09T05:47:44.269Z,100604.94
2024-04-09T05:50:11.577Z,100602.75
2024-04-09T05:52:38.347Z,100597.41
2024-04-09T05:55:06.735Z,100586.09
2024-04-09T05:57:38.727Z,100582.25
2024-04-09T06:00:12.962Z,100580.47
2024-04-09T06:02:42.334Z,100583.09
2024-04-09T06:05:08.969Z,100591.13
2024-04-09T06:07:35.586Z,100598.44
2024-04-09T06:10:04.559Z,100602.03
2024-04-09T06:12:31.243Z,100599.19
2024-04-09T06:14:57.982Z,100598.13
2024-04-09T06:17:24.834Z,100596.06
2024-04-09T06:19:53.594Z,100601.56
2024-04-09T06:22:20.725Z,100607.34
2024-04-09T06:24:49.516Z,100617.06
2024-04-09T06:27:16.278Z,100621.63
2024-04-09T06:29:43.425Z,100611.81
2024-04-09T06:32:10.867Z,100589.94
2024-04-09T06:34:37.556Z,100592.47
2024-04-09T06:37:04.859Z,100587.75
2024-04-09T06:39:31.546Z,100597.06
2024-04-09T06:42:00.970Z,100593.94
2024-04-09T06:44:27.584Z,100607.75
2024-04-09T06:46:54.230Z,100610.88
2024-04-09T06:49:21.125Z,100602.53
2024-04-09T06:51:47.828Z,100601.50
2024-04-09T06:54:15.751Z,100620.53
2024-04-09T06:56:42.984Z,100625.97
2024-04-09T06:59:09.639Z,100631.22
2024-04-09T07:01:36.488Z,100629.75
2024-04-09T07:04:05.790Z,100619.78
2024-04-09T07:06:32.905Z,100625.25
2024-04-09T07:09:03.564Z,100637.19
2024-04-09T07:11:30.421Z,100648.97
2024-04-09T07:13:57.751Z,100648.06
2024-04-09T07:16:24.670Z,100651.00
2024-04-09T07:18:51.411Z,100655.69
2024-04-09T07:21:19.305Z,100675.38
2024-04-09T07:23:47.407Z,100668.47
2024-04-09T07:26:14.929Z,100681.03
2024-04-09T07:28:41.588Z,100684.69
2024-04-09T07:31:09.670Z,100685.44
2024-04-09T07:33:36.544Z,100692.75
2024-04-09T07:36:04.581Z,100687.50
2024-04-09T07:38:31.588Z,100688.78
2024-04-09T07:40:58.316Z,100676.19
2024-04-09T07:43:25.170Z,100688.88
2024-04-09T07:45:55.272Z,100680.09
2024-04-09T07:48:22.828Z,100694.75
2024-04-09T07:50:49.622Z,100699.69
2024-04-09T07:53:19.670Z,100691.72
2024-04-09T07:55:46.594Z,100691.91
2024-04-09T07:58:13.540Z,100703.50
2024-04-09T08:00:40.863Z,100706.22
2024-04-09T08:03:08.315Z,100697.34
2024-04-09T08:05:37.317Z,100705.88
2024-04-09T08:08:05.475Z,100720.63
2024-04-09T08:10:32.982Z,100719.06
2024-04-09T08:13:01.385Z,100717.75
2024-04-09T08:15:28.653Z,100719.88
2024-04-09T08:17:55.564Z,100726.38
2024-04-09T08:20:22.299Z,100730.38
2024-04-09T08:22:53.242Z,100738.34
2024-04-09T08:25:21.138Z,100739.66
2024-04-09T08:27:48.681Z,100757.47
2024-04-09T08:30:18.958Z,100745.34
2024-04-09T08:32:51.364Z,100759.84
2024-04-09T08:35:18.426Z,100762.28
2024-04-09T08:37:46.414Z,100763.31
2024-04-09T08:40:15.105Z,100783.75
2024-04-09T08:42:46.003Z,100787.84
2024-04-09T08:45:16.966Z,100794.56
2024-04-09T08:47:45.396Z,100802.78
2024-04-09T08:50:14.626Z,100823.91
2024-04-09T08:52:42.224Z,100817.44
2024-04-09T08:55:09.554Z,100810.72
2024-04-09T08:57:38.328Z,100826.84
2024-04-09T09:00:05.681Z,100826.03
2024-04-09T09:02:32.381Z,100832.66
2024-04-09T09:04:58.992Z,100815.38
2024-04-09T09:07:26.034Z,100811.94
2024-04-09T09:10:07.734Z,100811.63
2024-04-09T09:12:34.582Z,100817.81
2024-04-09T09:15:02.756Z,100811.94
2024-04-09T09:17:32.719Z,100813.06
2024-04-09T09:20:15.443Z,100815.75
2024-04-09T09:22:47.120Z,100813.88
2024-04-09T09:25:24.077Z,100826.94
2024-04-09T09:28:02.901Z,100810.59
2024-04-09T09:30:46.902Z,100809.03
2024-04-09T09:33:31.016Z,100793.88
2024-04-09T09:35:58.310Z,100795.94
2024-04-09T09:38:30.543Z,100798.25
2024-04-09T09:40:58.509Z,100810.50
2024-04-09T09:43:26.991Z,100832.34
2024-04-09T09:45:55.274Z,100811.81
2024-04-09T09:48:24.543Z,100815.06
2024-04-09T09:50:51.514Z,100806.72
2024-04-09T09:53:19.889Z,100814.06
2024-04-09T09:55:50.533Z,100811.84
2024-04-09T09:58:22.106Z,100812.88
2024-04-09T10:00:50.917Z,100825.47
2024-04-09T10:03:18.224Z,100805.69
2024-04-09T10:05:46.237Z,100810.47
2024-04-09T10:08:27.178Z,100796.28
2024-04-09T10:10:53.795Z,100807.50
2024-04-09T10:13:22.691Z,100806.31
2024-04-09T10:15:49.912Z,100808.53
2024-04-09T10:18:35.615Z,100803.03
2024-04-09T10:21:04.351Z,100810.72
2024-04-09T10:23:38.745Z,100820.88
2024-04-09T10:26:07.045Z,100825.41
2024-04-09T10:28:36.833Z,100842.66
2024-04-09T10:31:09.647Z,100848.97
2024-04-09T10:33:38.625Z,100852.31
2024-04-09T10:36:10.305Z,100854.72
2024-04-09T10:38:43.183Z,100869.50
2024-04-09T10:41:10.567Z,100864.06
2024-04-09T10:43:37.236Z,100868.00
2024-04-09T10:46:11.038Z,100876.94
2024-04-09T10:48:42.122Z,100897.22
2024-04-09T10:51:09.845Z,100886.31
2024-04-09T10:53:36.735Z,100903.94
2024-04-09T10:56:03.754Z,100882.66
2024-04-09T10:58:30.491Z,100884.06
2024-04-09T11:00:57.621Z,100879.81
2024-04-09T11:03:25.108Z,100873.84
2024-04-09T11:05:52.595Z,100876.19
2024-04-09T11:08:31.515Z,100886.81
2024-04-09T11:11:02.919Z,100874.31
2024-04-09T11:13:31.147Z,100887.41
2024-04-09T11:15:58.536Z,100891.22
2024-04-09T11:18:26.484Z,100898.19
2024-04-09T11:20:55.253Z,100890.63
2024-04-09T11:23:26.235Z,100906.13
2024-04-09T11:25:54.196Z,100898.19
2024-04-09T11:28:22.976Z,100910.56
2024-04-09T11:30:53.513Z,100925.06
2024-04-09T11:33:20.707Z,100915.91
2024-04-09T11:35:53.290Z,100919.78
2024-04-09T11:38:21.000Z,100911.72
2024-04-09T11:40:47.881Z,100916.19
2024-04-09T11:43:14.813Z,100921.38
2024-04-09T11:45:42.321Z,100950.97
2024-04-09T11:48:10.912Z,100917.34
2024-04-09T11:50:37.867Z,100911.59
2024-04-09T11:53:06.745Z,100921.88
2024-04-09T11:55:33.436Z,100930.34
2024-04-09T11:58:00.244Z,100925.88
2024-04-09T12:00:27.173Z,100915.41
2024-04-09T12:02:54.055Z,100923.81
2024-04-09T12:05:20.754Z,100918.91
2024-04-09T12:07:47.479Z,100928.16
2024-04-09T12:10:14.618Z,100918.63
2024-04-09T12:12:42.017Z,100914.84
2024-04-09T12:15:09.300Z,100922.09
2024-04-09T12:17:36.415Z,100919.41
2024-04-09T12:20:04.189Z,100913.97
2024-04-09T12:22:31.722Z,100914.19
2024-04-09T12:24:58.522Z,100902.47
2024-04-09T12:27:25.710Z,100913.13
2024-04-09T12:29:52.429Z,100904.38
2024-04-09T12:32:19.329Z,100922.69
2024-04-09T12:34:47.287Z,100910.44
2024-04-09T12:37:14.161Z,100912.59
2024-04-09T12:39:40.937Z,100916.44
2024-04-09T12:42:09.202Z,100913.06
2024-04-09T12:44:36.874Z,100916.72
2024-04-09T12:47:04.507Z,100922.31
2024-04-09T12:49:41.608Z,100926.44
2024-04-09T12:52:12.719Z,100933.53
2024-04-09T12:54:39.531Z,100924.00
2024-04-09T12:57:06.328Z,100961.28
2024-04-09T13:02:12.781Z,100926.94
2024-04-09T13:04:39.768Z,100924.94
2024-04-09T13:07:06.835Z,100911.59
2024-04-09T13:09:33.569Z,100913.69
2024-04-09T13:12:00.348Z,100914.19
2024-04-09T13:14:27.546Z,100913.63
2024-04-09T13:16:56.636Z,100905.56
2024-04-09T13:19:25.649Z,100914.63
2024-04-09T13:21:52.407Z,100913.50
2024-04-09T13:24:19.035Z,100917.91
2024-04-09T13:26:45.634Z,100918.81
2024-04-09T13:29:12.337Z,100924.63
2024-04-09T13:31:38.985Z,100912.69
2024-04-09T13:34:07.176Z,100919.78
2024-04-09T13:36:33.943Z,100904.72
2024-04-09T13:39:00.769Z,100921.28
2024-04-09T13:41:27.701Z,100904.50
2024-04-09T13:43:55.356Z,100912.91
2024-04-09T13:46:28.435Z,100924.72
2024-04-09T13:48:56.276Z,100923.06
2024-04-09T13:51:23.077Z,100942.84
2024-04-09T13:53:49.773Z,100949.66
2024-04-09T13:56:17.057Z,100948.75
2024-04-09T13:58:44.156Z,100949.69
2024-04-09T14:01:10.871Z,100944.25
2024-04-09T14:03:37.565Z,100952.94
2024-04-09T14:06:04.587Z,100944.34
2024-04-09T14:08:31.591Z,100948.94
2024-04-09T14:10:58.485Z,100951.56
2024-04-09T14:13:29.634Z,100955.16
2024-04-09T14:15:56.668Z,100970.00
2024-04-09T14:18:27.828Z,100962.16
2024-04-09T14:20:57.744Z,100969.81
2024-04-09T14:23:25.183Z,100963.72
2024-04-09T14:25:51.964Z,100972.41
2024-04-09T14:28:18.837Z,100982.34
2024-04-09T14:30:46.263Z,100977.53
2024-04-09T14:33:13.621Z,101004.16
2024-04-09T14:35:43.484Z,101001.13
2024-04-09T14:38:10.767Z,100999.56
2024-04-09T14:40:37.503Z,101007.84
2024-04-09T14:43:05.001Z,101008.91
2024-04-09T14:45:31.847Z,101016.28
2024-04-09T14:47:58.911Z,101032.19
2024-04-09T14:50:25.888Z,101036.34
2024-04-09T14:52:52.730Z,101017.50
2024-04-09T14:55:19.455Z,101035.41
2024-04-09T14:57:46.330Z,101029.53
2024-04-09T15:00:13.690Z,101031.59
2024-04-09T15:02:40.531Z,101017.59
2024-04-09T15:05:07.414Z,101042.59
2024-04-09T15:07:35.549Z,101028.59
2024-04-09T15:10:02.453Z,101035.75
2024-04-09T15:12:29.148Z,101049.63
2024-04-09T15:14:56.387Z,101068.97
2024-04-09T15:17:25.704Z,101065.38
2024-04-09T15:19:55.256Z,101090.03
2024-04-09T15:22:22.218Z,101076.75
2024-04-09T15:24:49.525Z,101079.09
2024-04-09T15:27:16.186Z,101078.69
2024-04-09T15:29:42.938Z,101072.44
2024-04-09T15:32:11.177Z,101091.41
2024-04-09T15:34:38.096Z,101090.53
2024-04-09T15:37:04.755Z,101092.94
2024-04-09T15:39:31.479Z,101095.03
2024-04-09T15:41:58.147Z,101106.97
2024-04-09T15:44:24.862Z,101090.72
2024-04-09T15:46:51.614Z,101107.41
2024-04-09T15:49:18.426Z,101104.88
2024-04-09T15:51:45.121Z,101108.75
2024-04-09T15:54:12.047Z,101094.72
2024-04-09T15:56:38.655Z,101105.13
2024-04-09T15:59:05.725Z,101111.88
2024-04-09T16:01:35.900Z,101109.44
2024-04-09T16:04:02.538Z,101124.38
2024-04-09T16:06:30.728Z,101122.38
2024-04-09T16:08:57.345Z,101131.56
2024-04-09T16:11:26.967Z,101132.81
2024-04-09T16:13:53.684Z,101128.94
2024-04-09T16:16:20.353Z,101157.28
2024-04-09T16:18:47.903Z,101152.13
2024-04-09T16:21:14.725Z,101146.69
2024-04-09T16:23:41.705Z,101163.66
2024-04-09T16:26:11.296Z,101180.59
2024-04-09T16:28:38.346Z,101180.03
2024-04-09T16:31:05.187Z,101183.22
2024-04-09T16:33:32.874Z,101184.41
2024-04-09T16:35:59.652Z,101180.44
2024-04-09T16:38:28.854Z,101176.31
2024-04-09T16:40:57.513Z,101170.94
2024-04-09T16:43:24.160Z,101170.16
2024-04-09T16:45:50.803Z,101182.22
2024-04-09T16:48:17.560Z,101195.19
2024-04-09T16:50:46.668Z,101196.97
2024-04-09T16:53:13.764Z,101198.91
2024-04-09T16:55:40.818Z,101187.88
2024-04-09T16:58:08.628Z,101197.88
2024-04-09T17:00:36.705Z,101200.31
2024-04-09T17:03:04.166Z,101208.00
2024-04-09T17:05:30.961Z,101207.13
2024-04-09T17:07:58.726Z,101224.38
2024-04-09T17:10:25.526Z,101235.91
2024-04-09T17:12:52.339Z,101248.88
2024-04-09T17:15:20.028Z,101240.78
2024-04-09T17:17:47.191Z,101264.72
2024-04-09T17:20:14.330Z,101266.19
2024-04-09T17:22:41.099Z,101275.16
2024-04-09T17:25:07.790Z,101285.84
2024-04-09T17:27:34.493Z,101290.22
2024-04-09T17:30:01.284Z,101284.69
2024-04-09T17:32:32.213Z,101292.22
2024-04-09T17:35:00.903Z,101291.59
2024-04-09T17:37:27.926Z,101294.38
2024-04-09T17:39:54.626Z,101312.47
2024-04-09T17:42:21.346Z,101302.78
2024-04-09T17:44:48.001Z,101308.84
2024-04-09T17:47:14.709Z,101310.63
2024-04-09T17:49:41.660Z,101307.00
2024-04-09T17:52:08.602Z,101328.28
2024-04-09T17:54:35.539Z,101314.84
2024-04-09T17:57:02.668Z,101326.03
2024-04-09T17:59:29.622Z,101332.34
2024-04-09T18:01:56.307Z,101338.72
2024-04-09T18:04:26.899Z,101355.97
2024-04-09T18:06:53.787Z,101364.41
2024-04-09T18:09:20.427Z,101357.59
2024-04-09T18:11:47.787Z,101382.44
2024-04-09T18:14:14.741Z,101387.25
2024-04-09T18:16:41.505Z,101390.63
2024-04-09T18:19:08.431Z,101383.81
2024-04-09T18:21:35.407Z,101392.47
2024-04-09T18:24:02.160Z,101400.63
2024-04-09T18:26:28.975Z,101403.94
2024-04-09T18:28:55.883Z,101405.19
2024-04-09T18:31:22.642Z,101411.19
2024-04-09T18:33:49.998Z,101414.00
2024-04-09T18:36:16.866Z,101425.84
2024-04-09T18:38:43.569Z,101429.00
2024-04-09T18:41:11.563Z,101425.56
2024-04-09T18:43:38.619Z,101433.06
2024-04-09T18:46:05.540Z,101441.66
2024-04-09T18:48:33.109Z,101446.72
2024-04-09T18:51:00.049Z,101453.13
2024-04-09T18:53:26.831Z,101447.84
2024-04-09T18:55:53.612Z,101463.94
2024-04-09T18:58:20.254Z,101462.72
2024-04-09T19:00:47.094Z,101470.84
2024-04-09T19:03:13.930Z,101478.00
2024-04-09T19:05:42.305Z,101482.00
2024-04-09T19:08:09.928Z,101489.78
2024-04-09T19:10:41.782Z,101490.22
2024-04-09T19:13:08.667Z,101498.16
2024-04-09T19:15:35.869Z,101515.47
2024-04-09T19:18:02.868Z,101507.75
2024-04-09T19:20:29.720Z,101511.69
2024-04-09T19:22:58.030Z,101518.75
2024-04-09T19:25:25.022Z,101516.91
2024-04-09T19:27:51.631Z,101529.03
2024-04-09T19:30:19.057Z,101532.34
2024-04-09T19:32:45.838Z,101533.25
2024-04-09T19:35:12.706Z,101538.25
2024-04-09T19:37:42.649Z,101542.63
2024-04-09T19:40:10.339Z,101541.63
2024-04-09T19:42:37.142Z,101553.00
2024-04-09T19:45:04.561Z,101550.25
2024-04-09T19:47:31.587Z,101561.63
2024-04-09T19:49:59.848Z,101550.13
2024-04-09T19:52:26.798Z,101554.50
2024-04-09T19:54:53.605Z,101567.41
2024-04-09T19:57:20.266Z,101568.09
2024-04-09T19:59:46.940Z,101572.56
2024-04-09T20:02:13.654Z,101580.09
2024-04-09T20:04:40.428Z,101574.09
2024-04-09T20:07:07.182Z,101578.34
2024-04-09T20:09:33.943Z,101584.25
2024-04-09T20:12:01.023Z,101590.38
2024-04-09T20:14:28.266Z,101589.00
2024-04-09T20:16:55.149Z,101588.72
2024-04-09T20:19:22.066Z,101588.63
2024-04-09T20:21:51.534Z,101594.84
2024-04-09T20:24:18.251Z,101592.28
2024-04-09T20:26:49.750Z,101600.53
2024-04-09T20:29:16.410Z,101596.38
2024-04-09T20:31:43.198Z,101611.00
2024-04-09T20:34:10.914Z,101605.94
2024-04-09T20:36:38.187Z,101611.00
2024-04-09T20:39:05.328Z,101611.00
2024-04-09T20:41:35.835Z,101609.88
2024-04-09T20:44:03.066Z,101620.22
2024-04-09T20:46:30.291Z,101627.22
2024-04-09T20:48:57.308Z,101626.09
2024-04-09T20:51:25.110Z,101625.25
2024-04-09T20:53:51.932Z,101633.78
2024-04-09T20:56:18.724Z,101645.84
2024-04-09T20:58:45.441Z,101633.00
2024-04-09T21:01:12.236Z,101647.81
2024-04-09T21:03:39.549Z,101656.59
2024-04-09T21:06:06.604Z,101656.59
2024-04-09T21:08:33.346Z,101655.03
2024-04-09T21:11:00.364Z,101669.00
2024-04-09T21:13:27.280Z,101664.34
2024-04-09T21:15:54.180Z,101674.94
2024-04-09T21:18:21.048Z,101669.00
2024-04-09T21:20:47.797Z,101679.44
2024-04-09T21:23:14.566Z,101669.94
2024-04-09T21:25:43.256Z,101683.88
2024-04-09T21:28:09.963Z,101682.41
2024-04-09T21:30:36.614Z,101692.69
2024-04-09T21:33:04.648Z,101688.41
2024-04-09T21:35:33.021Z,101698.66
2024-04-09T21:37:59.829Z,101723.09
2024-04-09T21:40:26.690Z,101736.94
2024-04-09T21:42:53.489Z,101735.47
2024-04-09T21:45:20.845Z,101744.13
2024-04-09T21:47:47.687Z,101744.41
2024-04-09T21:50:14.625Z,101730.72
2024-04-09T21:52:41.359Z,101725.91
2024-04-09T21:55:08.281Z,101732.97
2024-04-09T21:57:34.901Z,101736.72
2024-04-09T22:00:01.538Z,101730.81
2024-04-09T22:02:28.322Z,101734.09
2024-04-09T22:04:55.310Z,101742.88
2024-04-09T22:07:22.038Z,101740.31
2024-04-09T22:09:50.749Z,101752.63
2024-04-09T22:12:17.510Z,101749.91
2024-04-09T22:14:44.287Z,101762.22
2024-04-09T22:17:11.078Z,101766.66
2024-04-09T22:19:37.812Z,101770.13
2024-04-09T22:22:04.419Z,101768.41
2024-04-09T22:24:31.033Z,101769.94
2024-04-09T22:26:57.694Z,101789.22
2024-04-09T22:29:24.403Z,101775.06
2024-04-09T22:31:51.139Z,101785.38
2024-04-09T22:34:17.864Z,101780.91
2024-04-09T22:36:44.550Z,101779.00
2024-04-09T22:39:11.214Z,101798.81
2024-04-09T22:41:38.118Z,101804.09
2024-04-09T22:44:04.965Z,101817.81
2024-04-09T22:46:31.706Z,101821.31
2024-04-09T22:48:58.652Z,101815.94
2024-04-09T22:51:25.464Z,101829.88
2024-04-09T22:53:55.155Z,101826.25
2024-04-09T22:56:21.865Z,101839.28
2024-04-09T22:58:48.636Z,101841.75
2024-04-09T23:01:15.491Z,101847.47
2024-04-09T23:03:42.452Z,101848.63
2024-04-09T23:06:09.854Z,101854.50
2024-04-09T23:08:37.451Z,101851.84
2024-04-09T23:11:05.904Z,101854.50
2024-04-09T23:13:34.097Z,101856.31
2024-04-09T23:16:02.609Z,101865.53
2024-04-09T23:18:29.820Z,101870.91
2024-04-09T23:20:58.024Z,101871.78
2024-04-09T23:23:25.681Z,101876.16
2024-04-09T23:25:53.017Z,101874.41
2024-04-09T23:28:19.705Z,101870.91
2024-04-09T23:30:46.334Z,101874.28
2024-04-09T23:33:13.077Z,101876.03
2024-04-09T23:35:40.192Z,101871.69
2024-04-09T23:38:07.876Z,101898.63
2024-04-09T23:40:42.270Z,101905.47
2024-04-09T23:43:11.179Z,101922.06
2024-04-09T23:45:38.148Z,101925.94
2024-04-09T23:48:06.259Z,101923.34
2024-04-09T23:50:33.538Z,101934.28
2024-04-09T23:53:00.410Z,101936.91
2024-04-09T23:55:27.266Z,101945.66
2024-04-09T23:57:53.957Z,101937.34
